Time;durP1;ratioP1;P1;durP2;ratioP2;P2;SDS_P1;SDS_P2;PMS_P1;PMS_P2;Temp;Humidity;BMP_temperature;BMP_pressure;BME280_temperature;BME280_humidity;BME280_pressure;Samples;Min_cycle;Max_cycle;Signal;HPM_P1;HPM_P2
2022/04/09 00:01:35;;;;;;;9.10;5.00;;;;;;;5.89;71.63;98399.63;88136;1276;83719;-78
2022/04/09 00:03:44;;;;;;;7.80;5.20;;;;;;;5.87;71.52;98397.00;88105;1276;98383;-75
2022/04/09 00:05:54;;;;;;;6.70;4.80;;;;;;;5.83;71.81;98389.33;88205;1276;87448;-75
2022/04/09 00:08:03;;;;;;;6.60;4.30;;;;;;;5.83;71.72;98386.98;88101;1276;93957;-76
2022/04/09 00:10:14;;;;;;;7.60;4.80;;;;;;;5.81;71.86;98385.14;88118;1276;79434;-75
2022/04/09 00:12:23;;;;;;;6.90;3.90;;;;;;;5.80;71.82;98378.67;88142;1276;83419;-76
2022/04/09 00:14:32;;;;;;;8.50;4.40;;;;;;;5.80;71.96;98379.90;88120;1276;99910;-75
2022/04/09 00:16:41;;;;;;;8.80;4.50;;;;;;;5.81;71.93;98374.42;88152;1276;90062;-72
2022/04/09 00:18:50;;;;;;;7.00;4.10;;;;;;;5.81;72.14;98375.33;88177;1276;95389;-72
2022/04/09 00:20:59;;;;;;;7.80;4.70;;;;;;;5.85;72.40;98371.64;88112;1276;77846;-73
2022/04/09 00:23:10;;;;;;;6.70;4.30;;;;;;;5.89;72.36;98367.97;88202;1275;81644;-71
2022/04/09 00:25:27;;;;;;;7.90;5.00;;;;;;;5.87;72.51;98359.92;88195;1274;99113;-75
2022/04/09 00:27:36;;;;;;;6.30;4.30;;;;;;;5.86;72.55;98359.68;88100;1276;87636;-76
2022/04/09 00:29:46;;;;;;;6.00;4.10;;;;;;;5.87;72.56;98357.76;88210;1274;95179;-76
2022/04/09 00:31:55;;;;;;;6.10;3.80;;;;;;;5.84;72.53;98355.59;88120;1276;78308;-71
2022/04/09 00:34:05;;;;;;;6.80;4.30;;;;;;;5.82;72.65;98350.88;88209;1274;81478;-70
2022/04/09 00:36:14;;;;;;;6.60;4.00;;;;;;;5.79;72.69;98352.79;88142;1276;96386;-71
2022/04/09 00:38:25;;;;;;;5.80;3.80;;;;;;;5.74;72.83;98346.23;88183;1274;88961;-70
2022/04/09 00:40:33;;;;;;;5.80;4.20;;;;;;;5.75;72.69;98346.11;88226;1274;94006;-75
2022/04/09 00:42:43;;;;;;;7.10;4.50;;;;;;;5.77;73.01;98345.28;88191;1274;79086;-75
2022/04/09 00:44:52;;;;;;;7.20;3.70;;;;;;;5.79;73.06;98345.20;88169;1274;82281;-74
2022/04/09 00:47:01;;;;;;;5.50;3.60;;;;;;;5.81;73.04;98352.38;88096;1276;99978;-71
2022/04/09 00:49:10;;;;;;;7.60;4.20;;;;;;;5.84;73.11;98347.59;88124;1276;87820;-71
2022/04/09 00:51:19;;;;;;;5.80;4.40;;;;;;;5.85;73.15;98346.58;88166;1274;95261;-75
2022/04/09 00:53:32;;;;;;;5.40;4.10;;;;;;;5.87;73.09;98339.49;88207;1274;78237;-76
2022/04/09 00:58:15;;;;;;;6.80;4.80;;;;;;;5.82;73.36;98343.75;88121;1276;98938;-75
2022/04/09 01:00:25;;;;;;;7.00;4.50;;;;;;;5.80;73.41;98349.77;88246;1274;86368;-70
2022/04/09 01:02:34;;;;;;;9.30;5.00;;;;;;;5.74;73.54;98349.99;88169;1275;91613;-72
2022/04/09 01:04:52;;;;;;;6.10;4.20;;;;;;;5.75;73.63;98353.54;88203;1274;79419;-71
2022/04/09 01:07:05;;;;;;;7.00;4.20;;;;;;;5.77;73.67;98349.81;88207;1274;82311;-75
2022/04/09 01:09:14;;;;;;;8.40;4.50;;;;;;;5.79;73.69;98352.91;88106;1276;100469;-74
2022/04/09 01:11:23;;;;;;;6.10;4.80;;;;;;;5.79;73.88;98352.76;88179;1274;87560;-72
2022/04/09 01:13:35;;;;;;;7.30;4.40;;;;;;;5.81;73.95;98354.19;88194;1274;95067;-72
2022/04/09 01:15:44;;;;;;;6.60;4.50;;;;;;;5.82;74.18;98357.27;88221;1274;80931;-71
2022/04/09 01:17:54;;;;;;;7.20;4.50;;;;;;;5.83;74.08;98357.30;88226;1274;83562;-72
2022/04/09 01:20:16;;;;;;;7.50;5.10;;;;;;;5.81;74.28;98355.86;88205;1274;99567;-74
2022/04/09 01:22:25;;;;;;;7.80;5.40;;;;;;;5.82;74.14;98354.76;88237;1274;87743;-74
2022/04/09 01:24:33;;;;;;;9.00;4.90;;;;;;;5.81;74.16;98356.86;88186;1272;96196;-75
2022/04/09 01:26:43;;;;;;;8.20;5.50;;;;;;;5.79;74.23;98361.77;88215;1274;80321;-71
2022/04/09 01:28:56;;;;;;;6.90;5.10;;;;;;;5.78;74.21;98361.20;88183;1276;82984;-71
2022/04/09 01:31:07;;;;;;;7.50;4.60;;;;;;;5.79;74.15;98360.78;88231;1274;97790;-71
2022/04/09 01:33:21;;;;;;;7.40;4.80;;;;;;;5.80;74.35;98366.02;88178;1274;86759;-71
2022/04/09 01:35:33;;;;;;;7.10;5.20;;;;;;;5.83;74.56;98365.14;88187;1274;94668;-72
2022/04/09 01:37:42;;;;;;;7.10;4.70;;;;;;;5.83;74.56;98362.91;88189;1276;81473;-72
2022/04/09 01:39:52;;;;;;;10.90;5.90;;;;;;;5.85;74.62;98356.17;88217;1274;82037;-71
2022/04/09 01:42:01;;;;;;;9.20;5.10;;;;;;;5.89;74.66;98343.31;88174;1276;99948;-76
2022/04/09 01:44:11;;;;;;;8.40;5.60;;;;;;;5.89;74.72;98343.45;88226;1274;89044;-75
2022/04/09 01:46:20;;;;;;;7.70;5.50;;;;;;;5.94;74.89;98357.64;88179;1275;95065;-75
2022/04/09 01:48:30;;;;;;;9.50;5.50;;;;;;;5.93;74.97;98358.48;88199;1276;82059;-75
2022/04/09 01:50:39;;;;;;;6.90;5.50;;;;;;;5.91;75.00;98352.54;88234;1274;80908;-74
2022/04/09 01:52:51;;;;;;;6.50;5.50;;;;;;;5.89;75.06;98361.37;88174;1276;99761;-76
2022/04/09 01:55:02;;;;;;;8.90;5.50;;;;;;;5.85;74.93;98356.70;88183;1276;89112;-74
2022/04/09 01:57:15;;;;;;;8.00;5.80;;;;;;;5.82;75.15;98361.06;88182;1274;94474;-71
2022/04/09 01:59:27;;;;;;;6.80;4.90;;;;;;;5.78;75.27;98361.20;88183;1276;78461;-71
2022/04/09 02:01:39;;;;;;;7.70;5.80;;;;;;;5.74;75.42;98358.94;88197;1274;83446;-72
2022/04/09 02:03:48;;;;;;;7.70;5.90;;;;;;;5.75;75.69;98355.52;88192;1274;99891;-71
2022/04/09 02:05:58;;;;;;;8.50;5.50;;;;;;;5.78;75.39;98350.35;88180;1275;86571;-72
2022/04/09 02:08:08;;;;;;;8.50;5.70;;;;;;;5.75;75.60;98345.79;88203;1274;94476;-72
2022/04/09 02:10:20;;;;;;;8.70;5.30;;;;;;;5.78;75.79;98337.33;88189;1274;80561;-71
2022/04/09 02:12:33;;;;;;;7.50;5.60;;;;;;;5.80;75.83;98331.72;88200;1274;81580;-74
2022/04/09 02:14:42;;;;;;;8.70;5.80;;;;;;;5.81;75.85;98333.91;88191;1275;100355;-71
2022/04/09 02:16:50;;;;;;;8.80;6.20;;;;;;;5.78;76.18;98336.59;88227;1274;87177;-76
2022/04/09 02:18:59;;;;;;;8.90;5.80;;;;;;;5.78;76.03;98330.90;88200;1276;93392;-76
2022/04/09 02:21:08;;;;;;;8.10;6.00;;;;;;;5.73;76.08;98332.81;88189;1276;81301;-75
2022/04/09 02:23:17;;;;;;;10.40;6.00;;;;;;;5.73;76.31;98327.45;88216;1274;81433;-75
2022/04/09 02:25:28;;;;;;;9.30;5.90;;;;;;;5.70;76.52;98322.30;88216;1276;100381;-75
2022/04/09 02:27:40;;;;;;;9.60;6.80;;;;;;;5.72;76.51;98325.96;88216;1274;87031;-75
2022/04/09 02:29:52;;;;;;;9.00;6.20;;;;;;;5.75;76.85;98330.41;88179;1276;94949;-76
2022/04/09 02:32:05;;;;;;;9.50;6.30;;;;;;;5.74;76.69;98329.36;88245;1274;78750;-75
2022/04/09 02:34:14;;;;;;;8.80;6.40;;;;;;;5.74;76.80;98332.52;88208;1274;81558;-76
2022/04/09 02:36:28;;;;;;;11.70;7.10;;;;;;;5.74;76.81;98325.23;88112;1276;99504;-76
2022/04/09 02:38:40;;;;;;;9.80;6.80;;;;;;;5.69;76.86;98319.25;88237;1274;87787;-75
2022/04/09 02:40:51;;;;;;;9.70;7.10;;;;;;;5.69;76.88;98322.80;88115;1278;94161;-76
2022/04/09 02:43:01;;;;;;;10.40;7.10;;;;;;;5.69;77.00;98328.89;88178;1276;80022;-75
2022/04/09 02:45:12;;;;;;;8.60;6.60;;;;;;;5.69;77.18;98325.89;88213;1276;82551;-75
2022/04/09 02:47:21;;;;;;;10.60;7.00;;;;;;;5.69;77.02;98320.20;88200;1276;100492;-75
2022/04/09 02:49:31;;;;;;;11.90;7.70;;;;;;;5.67;77.25;98316.45;88076;1276;90329;-76
2022/04/09 02:51:40;;;;;;;12.70;7.20;;;;;;;5.70;77.28;98323.95;88074;1276;94563;-75
2022/04/09 02:53:50;;;;;;;11.00;7.10;;;;;;;5.67;78.10;98332.03;88189;1276;79645;-71
2022/04/09 02:55:59;;;;;;;9.70;7.40;;;;;;;5.69;77.58;98344.31;88246;1274;80460;-71
2022/04/09 02:58:08;;;;;;;8.90;7.10;;;;;;;5.71;77.46;98340.63;88212;1274;99804;-73
2022/04/09 03:00:18;;;;;;;9.10;7.20;;;;;;;5.73;77.39;98334.21;88236;1276;88449;-72
2022/04/09 03:02:27;;;;;;;10.30;7.50;;;;;;;5.72;77.37;98330.34;88196;1274;93340;-71
2022/04/09 03:04:36;;;;;;;10.70;7.10;;;;;;;5.68;77.55;98326.55;88162;1275;79635;-71
2022/04/09 03:06:45;;;;;;;10.70;7.70;;;;;;;5.68;77.52;98335.27;88222;1274;81704;-75
2022/04/09 03:08:54;;;;;;;8.80;6.80;;;;;;;5.68;77.48;98337.23;88217;1274;98575;-71
2022/04/09 03:11:03;;;;;;;10.50;7.20;;;;;;;5.61;77.71;98330.40;87791;1276;553560;-75
2022/04/09 03:13:12;;;;;;;8.50;6.40;;;;;;;5.62;77.77;98333.28;88212;1274;92393;-76
2022/04/09 03:15:21;;;;;;;8.40;6.10;;;;;;;5.64;78.05;98341.10;88083;1275;81327;-75
2022/04/09 03:17:30;;;;;;;8.70;6.50;;;;;;;5.62;78.17;98342.25;88205;1274;83694;-76
2022/04/09 03:19:39;;;;;;;10.60;6.70;;;;;;;5.65;78.15;98341.77;88205;1274;98924;-76
2022/04/09 03:21:48;;;;;;;8.50;6.50;;;;;;;5.70;77.93;98336.59;88209;1276;87600;-74
2022/04/09 03:23:56;;;;;;;9.60;6.90;;;;;;;5.68;78.15;98334.95;88174;1276;94122;-74
2022/04/09 03:26:06;;;;;;;10.70;7.10;;;;;;;5.69;78.14;98342.29;88216;1274;79292;-74
2022/04/09 03:28:14;;;;;;;8.40;6.80;;;;;;;5.70;77.96;98343.08;88202;1274;82282;-74
2022/04/09 03:30:23;;;;;;;10.20;6.80;;;;;;;5.70;77.91;98345.25;88219;1274;97226;-74
2022/04/09 03:32:38;;;;;;;7.80;6.80;;;;;;;5.66;78.03;98345.02;88204;1274;86564;-75
2022/04/09 03:34:47;;;;;;;7.00;6.30;;;;;;;5.68;78.19;98353.42;88099;1277;95745;-75
2022/04/09 03:36:59;;;;;;;8.90;6.90;;;;;;;5.64;78.44;98351.89;88219;1274;79712;-74
2022/04/09 03:39:11;;;;;;;9.10;5.90;;;;;;;5.64;78.35;98354.74;88199;1274;80673;-75
2022/04/09 03:41:20;;;;;;;9.10;6.20;;;;;;;5.65;78.58;98352.86;88215;1274;99275;-76
2022/04/09 03:43:30;;;;;;;8.10;6.20;;;;;;;5.68;78.30;98346.29;88188;1274;89362;-75
2022/04/09 03:45:40;;;;;;;8.50;6.10;;;;;;;5.70;78.65;98355.11;88220;1274;95250;-74
2022/04/09 03:47:52;;;;;;;7.40;6.30;;;;;;;5.69;78.59;98358.61;88191;1276;80988;-75
2022/04/09 03:50:04;;;;;;;7.00;5.90;;;;;;;5.69;78.47;98360.55;88255;1274;82681;-75
2022/04/09 03:52:14;;;;;;;7.30;5.70;;;;;;;5.66;78.19;98362.95;88208;1274;98509;-75
2022/04/09 03:54:22;;;;;;;7.80;5.60;;;;;;;5.62;78.52;98369.30;88221;1274;89340;-73
2022/04/09 03:56:34;;;;;;;7.20;5.50;;;;;;;5.61;78.36;98375.06;88212;1274;95907;-76
2022/04/09 03:58:48;;;;;;;6.50;5.40;;;;;;;5.65;78.52;98375.67;88152;1274;80637;-77
2022/04/09 04:01:01;;;;;;;6.40;5.50;;;;;;;5.66;78.57;98371.73;88226;1274;80318;-73
2022/04/09 04:03:14;;;;;;;6.60;5.70;;;;;;;5.64;78.68;98377.53;88199;1274;100966;-74
2022/04/09 04:05:23;;;;;;;8.40;6.00;;;;;;;5.68;78.67;98382.19;88248;1274;90116;-76
2022/04/09 04:07:36;;;;;;;7.40;5.90;;;;;;;5.75;78.48;98383.25;88187;1274;94536;-74
2022/04/09 04:09:44;;;;;;;6.80;5.70;;;;;;;5.79;78.60;98387.34;88203;1274;79932;-72
2022/04/09 04:11:53;;;;;;;8.00;7.20;;;;;;;5.82;78.56;98389.08;88189;1274;82386;-73
2022/04/09 04:14:03;;;;;;;8.60;7.50;;;;;;;5.83;78.42;98390.90;88095;1276;99720;-73
2022/04/09 04:16:15;;;;;;;8.70;7.80;;;;;;;5.83;78.60;98387.52;88231;1274;87308;-73
2022/04/09 04:18:24;;;;;;;10.70;8.20;;;;;;;5.80;78.75;98394.58;88201;1274;95429;-75
2022/04/09 04:20:33;;;;;;;9.30;7.60;;;;;;;5.80;78.64;98407.19;88195;1274;78854;-78
2022/04/09 04:22:42;;;;;;;10.80;8.10;;;;;;;5.81;78.80;98408.35;88203;1274;80774;-78
2022/04/09 04:24:52;;;;;;;10.30;8.10;;;;;;;5.80;78.66;98416.34;88199;1274;100157;-75
2022/04/09 04:27:00;;;;;;;10.90;8.10;;;;;;;5.81;78.73;98424.37;88200;1274;88028;-74
2022/04/09 04:29:09;;;;;;;9.30;8.20;;;;;;;5.86;78.62;98421.84;88158;1274;95478;-73
2022/04/09 04:31:19;;;;;;;10.80;8.40;;;;;;;5.88;78.87;98425.76;88218;1274;78050;-75
2022/04/09 04:33:28;;;;;;;11.30;8.30;;;;;;;5.91;78.94;98430.59;88169;1275;82767;-74
2022/04/09 04:35:36;;;;;;;9.10;8.10;;;;;;;5.90;78.93;98432.11;88247;1274;97626;-70
2022/04/09 04:37:47;;;;;;;9.40;8.10;;;;;;;5.91;79.03;98433.76;88160;1274;89499;-70
2022/04/09 04:40:00;;;;;;;11.50;9.20;;;;;;;5.89;79.27;98430.74;88199;1274;95047;-71
2022/04/09 04:42:10;;;;;;;12.70;8.40;;;;;;;5.89;79.03;98433.67;88179;1274;80452;-74
2022/04/09 04:44:21;;;;;;;9.20;7.60;;;;;;;5.89;79.07;98436.97;88202;1274;83160;-74
2022/04/09 04:46:33;;;;;;;9.60;7.50;;;;;;;5.87;78.92;98442.16;88198;1274;99605;-73
2022/04/09 04:48:42;;;;;;;8.20;6.80;;;;;;;5.89;79.10;98439.91;88204;1274;88722;-74
2022/04/09 04:50:54;;;;;;;8.10;6.50;;;;;;;5.89;79.16;98437.52;88193;1274;95026;-70
2022/04/09 04:53:05;;;;;;;6.70;5.50;;;;;;;5.90;79.01;98444.94;88182;1274;80199;-71
2022/04/09 04:55:15;;;;;;;8.10;6.20;;;;;;;5.91;78.94;98445.18;88242;1274;81710;-74
2022/04/09 04:57:24;;;;;;;6.20;5.30;;;;;;;5.89;78.96;98445.27;88197;1274;97843;-76
2022/04/09 04:59:33;;;;;;;6.00;4.80;;;;;;;5.88;78.99;98441.02;88183;1274;89130;-75
2022/04/09 05:01:41;;;;;;;6.50;5.30;;;;;;;5.81;78.97;98435.17;88199;1274;95302;-75
2022/04/09 05:03:50;;;;;;;6.00;4.60;;;;;;;5.81;79.01;98437.83;88177;1274;79394;-75
2022/04/09 05:05:59;;;;;;;5.60;4.50;;;;;;;5.77;79.20;98440.17;88202;1274;83746;-70
2022/04/09 05:08:09;;;;;;;4.60;4.10;;;;;;;5.72;79.09;98446.91;88105;1276;98496;-75
2022/04/09 05:10:20;;;;;;;7.20;4.20;;;;;;;5.67;79.02;98453.84;88219;1274;86986;-74
2022/04/09 05:12:33;;;;;;;5.10;3.70;;;;;;;5.67;79.02;98460.97;88174;1274;94225;-74
2022/04/09 05:14:42;;;;;;;5.20;3.80;;;;;;;5.68;78.96;98467.04;88186;1274;80950;-74
2022/04/09 05:16:51;;;;;;;4.80;4.00;;;;;;;5.70;79.18;98470.41;88183;1274;82733;-71
2022/04/09 05:18:59;;;;;;;5.80;4.20;;;;;;;5.71;79.45;98472.05;88208;1274;98425;-72
2022/04/09 05:21:09;;;;;;;5.50;4.10;;;;;;;5.77;79.29;98480.02;88189;1274;88141;-79
2022/04/09 05:23:21;;;;;;;6.60;4.80;;;;;;;5.82;79.36;98483.81;88180;1274;95367;-77
2022/04/09 05:25:31;;;;;;;7.10;5.50;;;;;;;5.83;79.39;98485.71;88182;1274;79544;-77
2022/04/09 05:27:40;;;;;;;7.60;5.80;;;;;;;5.83;79.58;98486.86;88191;1274;83159;-77
2022/04/09 05:29:50;;;;;;;6.50;5.00;;;;;;;5.86;79.85;98476.79;88161;1274;100734;-76
2022/04/09 05:31:59;;;;;;;6.90;5.40;;;;;;;5.90;79.59;98474.69;88209;1274;89331;-76
2022/04/09 05:34:11;;;;;;;6.50;4.80;;;;;;;5.95;79.53;98464.89;88191;1274;93512;-74
2022/04/09 05:36:21;;;;;;;6.80;5.40;;;;;;;5.96;79.37;98466.02;88209;1274;82481;-74
2022/04/09 05:38:30;;;;;;;5.90;4.90;;;;;;;6.01;79.29;98462.66;88213;1274;82045;-74
2022/04/09 05:40:42;;;;;;;6.80;4.60;;;;;;;6.02;79.28;98460.59;88217;1275;98991;-74
2022/04/09 05:42:51;;;;;;;5.70;4.10;;;;;;;5.99;79.32;98461.54;88201;1274;86947;-75
2022/04/09 05:45:03;;;;;;;5.40;4.30;;;;;;;6.03;79.51;98466.36;88192;1275;95711;-75
2022/04/09 05:47:15;;;;;;;5.70;4.10;;;;;;;6.06;79.63;98471.77;88063;1278;80121;-75
2022/04/09 05:49:23;;;;;;;5.50;4.60;;;;;;;6.13;79.69;98472.58;88222;1274;81976;-76
2022/04/09 05:51:36;;;;;;;6.00;5.00;;;;;;;6.17;79.64;98471.09;88203;1275;99970;-74
2022/04/09 05:53:45;;;;;;;5.50;4.70;;;;;;;6.24;79.55;98475.77;88192;1274;88584;-75
2022/04/09 05:55:54;;;;;;;5.10;4.60;;;;;;;6.28;79.47;98480.45;88170;1275;95821;-75
2022/04/09 05:58:06;;;;;;;6.30;4.50;;;;;;;6.27;79.25;98476.80;88189;1274;80965;-75
2022/04/09 06:00:19;;;;;;;5.00;4.50;;;;;;;6.26;79.18;98474.33;88224;1275;83108;-75
2022/04/09 06:02:32;;;;;;;6.40;4.70;;;;;;;6.26;79.34;98469.05;88089;1277;98243;-76
2022/04/09 06:04:44;;;;;;;5.90;4.20;;;;;;;6.28;79.25;98473.50;88208;1274;87889;-76
2022/04/09 06:06:55;;;;;;;5.00;4.20;;;;;;;6.34;79.21;98484.67;88183;1274;94273;-75
2022/04/09 06:09:07;;;;;;;5.60;4.30;;;;;;;6.36;79.36;98491.02;88104;1276;82334;-76
2022/04/09 06:11:16;;;;;;;5.60;4.00;;;;;;;6.42;79.44;98491.30;88119;1278;82982;-76
2022/04/09 06:13:28;;;;;;;5.40;4.60;;;;;;;6.49;79.29;98486.26;88109;1276;98882;-74
2022/04/09 06:15:38;;;;;;;5.20;4.30;;;;;;;6.48;79.38;98490.63;88195;1276;89076;-74
2022/04/09 06:17:46;;;;;;;5.80;4.30;;;;;;;6.51;79.26;98499.99;88192;1274;93470;-75
2022/04/09 06:19:59;;;;;;;5.90;5.20;;;;;;;6.52;79.40;98504.56;88197;1274;77531;-74
2022/04/09 06:22:10;;;;;;;5.60;4.80;;;;;;;6.58;79.23;98505.64;88173;1276;81539;-74
2022/04/09 06:24:22;;;;;;;6.10;5.20;;;;;;;6.59;79.28;98504.96;88184;1276;98273;-74
2022/04/09 06:26:31;;;;;;;7.10;4.80;;;;;;;6.65;79.47;98503.95;88164;1276;86434;-75
2022/04/09 06:28:40;;;;;;;6.20;4.70;;;;;;;6.70;79.42;98502.45;88176;1276;94642;-75
2022/04/09 06:30:52;;;;;;;6.20;4.50;;;;;;;6.74;79.24;98508.92;88215;1274;82780;-75
2022/04/09 06:33:07;;;;;;;5.20;4.60;;;;;;;6.75;79.34;98507.06;88221;1274;82117;-75
2022/04/09 06:35:21;;;;;;;6.20;4.20;;;;;;;6.79;79.26;98508.54;88252;1274;98989;-76
2022/04/09 06:37:37;;;;;;;7.20;4.60;;;;;;;6.86;79.22;98507.44;88208;1274;87888;-75
2022/04/09 06:39:59;;;;;;;6.20;5.10;;;;;;;6.93;79.21;98511.21;88212;1274;93878;-74
2022/04/09 06:42:11;;;;;;;8.20;5.50;;;;;;;7.02;79.48;98510.36;88133;1276;78199;-75
2022/04/09 06:44:26;;;;;;;7.70;5.60;;;;;;;7.18;79.50;98514.66;88190;1276;82814;-74
2022/04/09 06:46:35;;;;;;;6.80;5.20;;;;;;;7.33;79.12;98510.92;88176;1276;96869;-74
2022/04/09 06:48:44;;;;;;;7.00;6.20;;;;;;;7.49;79.13;98514.21;88200;1274;89257;-75
2022/04/09 06:50:53;;;;;;;6.60;5.40;;;;;;;7.61;78.82;98515.67;88215;1274;95528;-77
2022/04/09 06:53:03;;;;;;;8.60;5.80;;;;;;;7.70;78.39;98517.68;88097;1278;83639;-75
2022/04/09 06:55:15;;;;;;;7.40;5.80;;;;;;;7.81;78.40;98520.17;88213;1276;81450;-74
2022/04/09 06:57:24;;;;;;;6.80;5.40;;;;;;;7.97;78.16;98515.91;88208;1274;100116;-74
2022/04/09 06:59:33;;;;;;;7.00;5.90;;;;;;;8.10;78.00;98516.15;88191;1276;87072;-74
2022/04/09 07:01:43;;;;;;;7.70;5.30;;;;;;;8.23;77.97;98518.51;88224;1274;95882;-75
2022/04/09 07:03:52;;;;;;;7.40;5.40;;;;;;;8.32;77.85;98525.75;88215;1274;79162;-72
2022/04/09 07:06:01;;;;;;;7.80;5.70;;;;;;;8.38;77.53;98523.30;88247;1274;84184;-73
2022/04/09 07:08:12;;;;;;;9.10;6.10;;;;;;;8.38;77.55;98530.55;88100;1276;98511;-73
2022/04/09 07:10:22;;;;;;;7.60;6.20;;;;;;;8.33;77.32;98531.33;88222;1276;88174;-72
2022/04/09 07:12:31;;;;;;;7.00;6.30;;;;;;;8.30;77.14;98533.02;88203;1275;95297;-71
2022/04/09 07:14:40;;;;;;;8.20;6.00;;;;;;;8.28;77.19;98543.83;88160;1276;79787;-72
2022/04/09 07:16:49;;;;;;;8.20;6.20;;;;;;;8.23;77.03;98546.05;88196;1276;82819;-71
2022/04/09 07:18:58;;;;;;;9.30;6.20;;;;;;;8.19;77.18;98558.02;88215;1275;98968;-73
2022/04/09 07:21:07;;;;;;;7.00;5.50;;;;;;;8.35;77.00;98568.83;88193;1276;89210;-73
2022/04/09 07:23:16;;;;;;;7.70;5.90;;;;;;;8.43;77.02;98576.48;88181;1276;92320;-72
2022/04/09 07:25:25;;;;;;;7.80;6.30;;;;;;;8.52;76.91;98581.59;88179;1274;78782;-70
2022/04/09 07:27:46;;;;;;;9.00;6.00;;;;;;;8.56;76.74;98591.52;88230;1275;80360;-71
2022/04/09 07:29:56;;;;;;;8.20;6.00;;;;;;;8.60;76.69;98593.23;88189;1274;98951;-71
2022/04/09 07:32:06;;;;;;;8.70;6.50;;;;;;;8.72;76.50;98599.45;88233;1274;87439;-72
2022/04/09 07:34:15;;;;;;;7.50;6.40;;;;;;;8.77;76.16;98605.48;88193;1274;93803;-72
2022/04/09 07:36:24;;;;;;;8.90;7.10;;;;;;;8.84;75.81;98609.98;88240;1274;81404;-72
2022/04/09 07:38:33;;;;;;;7.60;6.60;;;;;;;8.97;75.77;98611.73;88208;1274;80412;-72
2022/04/09 07:40:45;;;;;;;10.40;6.60;;;;;;;9.08;75.79;98616.52;88199;1275;99590;-73
2022/04/09 07:42:57;;;;;;;9.20;6.80;;;;;;;9.20;75.49;98613.18;88222;1274;87715;-73
2022/04/09 07:45:07;;;;;;;8.50;7.10;;;;;;;9.33;75.26;98619.09;88223;1274;93756;-73
2022/04/09 07:47:18;;;;;;;9.90;7.20;;;;;;;9.47;75.19;98616.67;88200;1274;80485;-73
2022/04/09 07:49:28;;;;;;;9.60;6.60;;;;;;;9.58;75.09;98622.76;88198;1274;80630;-72
2022/04/09 07:51:37;;;;;;;10.90;7.00;;;;;;;9.71;74.67;98622.53;88196;1274;99767;-73
2022/04/09 07:53:46;;;;;;;10.10;7.10;;;;;;;9.83;74.15;98628.37;88186;1274;89091;-74
2022/04/09 07:55:55;;;;;;;11.60;8.30;;;;;;;9.89;73.89;98630.21;88222;1274;93803;-72
2022/04/09 07:58:14;;;;;;;10.40;7.00;;;;;;;9.88;72.65;98640.05;88192;1275;78770;-70
2022/04/09 08:00:25;;;;;;;9.20;7.10;;;;;;;9.79;72.92;98646.97;88263;1275;81433;-72
2022/04/09 08:02:35;;;;;;;10.60;7.20;;;;;;;9.89;72.94;98651.16;88236;1274;99471;-73
2022/04/09 08:04:44;;;;;;;10.30;7.10;;;;;;;9.97;72.70;98655.15;88233;1275;88432;-73
2022/04/09 08:06:57;;;;;;;8.90;7.00;;;;;;;9.94;72.69;98659.06;88227;1274;94287;-73
2022/04/09 08:09:09;;;;;;;10.80;7.60;;;;;;;10.02;72.55;98662.84;88207;1274;79809;-72
2022/04/09 08:11:19;;;;;;;12.50;8.10;;;;;;;9.99;72.40;98666.95;88238;1274;83124;-71
2022/04/09 08:13:31;;;;;;;13.30;8.20;;;;;;;9.94;71.90;98673.20;88214;1275;99562;-73
2022/04/09 08:15:41;;;;;;;12.90;7.90;;;;;;;9.84;71.59;98682.38;88216;1274;89939;-73
2022/04/09 08:17:54;;;;;;;11.40;8.40;;;;;;;9.86;71.18;98692.30;88206;1274;95849;-73
2022/04/09 08:20:03;;;;;;;10.20;7.60;;;;;;;9.86;71.29;98700.94;88169;1274;78340;-76
2022/04/09 08:22:13;;;;;;;14.00;8.20;;;;;;;9.96;70.99;98703.89;88202;1275;81596;-76
2022/04/09 08:24:22;;;;;;;10.10;7.60;;;;;;;9.94;69.74;98707.56;88197;1276;98001;-69
2022/04/09 08:26:31;;;;;;;11.10;7.60;;;;;;;9.92;70.06;98706.19;88165;1275;88063;-73
2022/04/09 08:28:43;;;;;;;11.00;8.10;;;;;;;9.91;70.24;98706.45;88226;1274;93253;-73
2022/04/09 08:30:56;;;;;;;10.70;8.40;;;;;;;9.88;69.43;98709.39;88234;1274;80059;-73
2022/04/09 08:33:07;;;;;;;10.90;8.50;;;;;;;9.94;69.80;98711.05;88215;1275;82155;-74
2022/04/09 08:35:16;;;;;;;12.80;9.30;;;;;;;10.03;70.00;98712.23;88180;1274;99929;-75
2022/04/09 08:37:25;;;;;;;10.50;8.10;;;;;;;10.14;69.80;98721.66;88190;1276;88615;-74
2022/04/09 08:39:34;;;;;;;10.00;7.70;;;;;;;10.15;69.56;98727.63;88207;1274;91976;-74
2022/04/09 08:41:53;;;;;;;10.80;8.20;;;;;;;10.09;69.33;98728.60;88157;1274;80968;-75
2022/04/09 08:44:02;;;;;;;13.40;8.00;;;;;;;10.12;69.25;98736.83;88216;1275;82960;-73
2022/04/09 08:46:12;;;;;;;9.70;7.20;;;;;;;10.13;68.94;98739.35;88238;1275;99737;-73
2022/04/09 08:48:25;;;;;;;11.50;7.60;;;;;;;10.02;68.73;98741.92;88218;1275;85923;-72
2022/04/09 08:50:38;;;;;;;9.60;7.20;;;;;;;9.97;68.75;98744.05;88164;1274;94688;-72
2022/04/09 08:52:51;;;;;;;10.60;7.60;;;;;;;10.01;68.78;98747.45;88180;1275;78297;-72
2022/04/09 08:55:00;;;;;;;11.50;7.40;;;;;;;10.09;68.60;98741.92;88211;1274;82600;-73
2022/04/09 08:57:11;;;;;;;9.10;6.90;;;;;;;10.22;68.50;98744.69;88186;1274;100343;-72
2022/04/09 08:59:20;;;;;;;9.70;7.10;;;;;;;10.26;68.17;98742.31;88198;1274;88274;-72
2022/04/09 09:01:32;;;;;;;11.00;7.00;;;;;;;10.42;68.44;98743.95;88220;1274;95490;-72
2022/04/09 09:03:41;;;;;;;9.70;7.10;;;;;;;10.59;68.49;98745.71;88131;1276;78581;-72
2022/04/09 09:05:52;;;;;;;10.80;7.80;;;;;;;10.84;68.15;98747.91;88191;1274;81861;-73
2022/04/09 09:08:02;;;;;;;11.50;7.60;;;;;;;11.21;68.21;98746.64;88190;1276;97265;-71
2022/04/09 09:10:22;;;;;;;10.40;7.50;;;;;;;11.38;67.88;98750.86;88211;1274;88820;-73
2022/04/09 09:12:35;;;;;;;10.70;6.80;;;;;;;11.70;67.87;98749.54;88168;1276;94596;-72
2022/04/09 09:14:49;;;;;;;;;;;;;;;12.00;67.39;98742.84;88177;1276;78847;-72
2022/04/09 09:17:01;;;;;;;11.70;7.00;;;;;;;12.17;66.61;98742.42;88226;1274;82749;-72
2022/04/09 09:19:13;;;;;;;10.30;6.70;;;;;;;12.34;66.25;98746.46;88121;1276;100215;-74
2022/04/09 09:21:27;;;;;;;9.30;6.90;;;;;;;12.55;65.51;98745.46;88189;1276;88604;-72
2022/04/09 09:23:36;;;;;;;10.90;7.40;;;;;;;12.63;64.80;98752.09;88188;1274;95338;-71
2022/04/09 09:25:55;;;;;;;9.80;6.40;;;;;;;12.65;64.47;98768.79;88191;1274;81135;-71
2022/04/09 09:28:04;;;;;;;10.30;5.80;;;;;;;12.73;62.26;98773.11;88128;1276;81018;-72
2022/04/09 09:30:17;;;;;;;11.70;6.80;;;;;;;12.85;62.52;98780.44;88229;1276;96522;-72
2022/04/09 09:32:30;;;;;;;11.00;7.10;;;;;;;12.92;62.93;98788.85;88227;1274;88034;-72
2022/04/09 09:34:39;;;;;;;9.90;5.80;;;;;;;13.12;62.41;98785.44;88215;1275;95384;-72
2022/04/09 09:36:50;;;;;;;9.60;5.40;;;;;;;13.27;61.78;98778.38;88201;1275;79777;-72
2022/04/09 09:39:07;;;;;;;12.80;7.20;;;;;;;13.52;61.48;98775.70;88221;1274;82306;-70
2022/04/09 09:41:27;;;;;;;10.80;6.30;;;;;;;13.87;61.16;98772.20;88187;1274;98762;-72
2022/04/09 09:43:37;;;;;;;10.80;7.50;;;;;;;13.80;60.09;98775.79;88194;1275;88758;-72
2022/04/09 09:45:52;;;;;;;7.60;4.70;;;;;;;13.71;59.33;98780.42;88240;1274;93599;-73
2022/04/09 09:48:02;;;;;;;10.30;6.30;;;;;;;13.38;58.66;98788.82;88198;1274;79420;-73
2022/04/09 09:50:14;;;;;;;9.90;5.80;;;;;;;13.08;58.79;98794.47;88189;1274;82795;-71
2022/04/09 09:52:34;;;;;;;11.00;6.00;;;;;;;12.77;58.54;98797.20;88225;1274;99221;-72
2022/04/09 09:55:10;;;;;;;26.60;17.00;;;;;;;12.54;58.05;98806.43;88225;1274;89306;-73
2022/04/09 09:57:30;;;;;;;17.30;9.70;;;;;;;12.67;58.45;98805.94;88203;1275;94226;-73
2022/04/09 09:59:44;;;;;;;12.20;7.50;;;;;;;13.02;58.70;98809.86;88210;1274;78643;-72
2022/04/09 10:01:59;;;;;;;14.20;8.30;;;;;;;13.12;58.34;98815.97;88220;1274;81647;-71
2022/04/09 10:04:11;;;;;;;10.90;8.20;;;;;;;12.99;57.29;98821.52;88338;1270;96862;-72
2022/04/09 10:06:21;;;;;;;10.80;5.90;;;;;;;12.84;56.84;98827.67;88156;1276;90976;-72
2022/04/09 10:08:31;;;;;;;8.90;6.40;;;;;;;12.59;56.42;98833.35;88291;1273;94512;-71
2022/04/09 10:10:48;;;;;;;6.90;4.20;;;;;;;12.35;56.49;98844.84;88311;1273;80911;-72
2022/04/09 10:13:00;;;;;;;8.90;4.90;;;;;;;12.12;56.15;98847.04;88261;1273;79375;-72
2022/04/09 10:15:12;;;;;;;7.70;4.10;;;;;;;11.79;56.17;98851.86;88247;1273;99476;-72
2022/04/09 10:17:23;;;;;;;6.60;3.80;;;;;;;11.74;55.94;98856.23;88286;1274;86376;-72
2022/04/09 10:19:33;;;;;;;5.40;3.00;;;;;;;11.67;56.52;98860.14;88268;1274;92521;-74
2022/04/09 10:21:46;;;;;;;7.10;3.70;;;;;;;11.75;56.56;98863.45;88289;1273;78437;-73
2022/04/09 10:23:57;;;;;;;6.40;3.80;;;;;;;12.07;56.71;98865.05;88311;1273;82311;-71